sensor_id;sensor_type;location;lat;lon;timestamp;pressure;altitude;pressure_sealevel;temperature;humidity
70314;BME280;57725;47.526;18.986;2022-10-31T00:01:01;100440.06;;;14.02;93.65
70314;BME280;57725;47.526;18.986;2022-10-31T00:03:26;100448.75;;;14.04;93.49
70314;BME280;57725;47.526;18.986;2022-10-31T00:05:54;100454.00;;;14.04;93.48
70314;BME280;57725;47.526;18.986;2022-10-31T00:08:22;100439.16;;;14.03;93.47
70314;BME280;57725;47.526;18.986;2022-10-31T00:10:47;100441.72;;;14.04;93.47
70314;BME280;57725;47.526;18.986;2022-10-31T00:13:13;100446.19;;;14.02;93.61
70314;BME280;57725;47.526;18.986;2022-10-31T00:15:41;100440.94;;;14.02;93.48
70314;BME280;57725;47.526;18.986;2022-10-31T00:18:10;100434.75;;;14.03;93.77
70314;BME280;57725;47.526;18.986;2022-10-31T00:20:36;100439.22;;;14.01;93.75
70314;BME280;57725;47.526;18.986;2022-10-31T00:23:04;100440.06;;;14.02;93.69
70314;BME280;57725;47.526;18.986;2022-10-31T00:25:37;100442.72;;;14.02;93.43
70314;BME280;57725;47.526;18.986;2022-10-31T00:28:04;100433.97;;;14.01;93.60
70314;BME280;57725;47.526;18.986;2022-10-31T00:30:33;100436.59;;;14.01;93.60
70314;BME280;57725;47.526;18.986;2022-10-31T00:32:58;100438.38;;;14.01;93.58
70314;BME280;57725;47.526;18.986;2022-10-31T00:35:24;100430.50;;;14.01;93.50
70314;BME280;57725;47.526;18.986;2022-10-31T00:37:52;100427.84;;;14.01;93.36
70314;BME280;57725;47.526;18.986;2022-10-31T00:40:20;100438.31;;;14.02;93.60
70314;BME280;57725;47.526;18.986;2022-10-31T00:42:45;100436.59;;;14.01;93.72
70314;BME280;57725;47.526;18.986;2022-10-31T00:45:10;100427.84;;;14.01;93.62
70314;BME280;57725;47.526;18.986;2022-10-31T00:47:36;100428.72;;;14.01;93.64
70314;BME280;57725;47.526;18.986;2022-10-31T00:50:07;100431.34;;;14.01;93.45
70314;BME280;57725;47.526;18.986;2022-10-31T00:52:33;100428.72;;;14.01;93.55
70314;BME280;57725;47.526;18.986;2022-10-31T00:54:58;100441.84;;;14.01;93.45
70314;BME280;57725;47.526;18.986;2022-10-31T00:57:26;100422.66;;;13.99;93.61
70314;BME280;57725;47.526;18.986;2022-10-31T00:59:53;100429.63;;;14.00;93.46
70314;BME280;57725;47.526;18.986;2022-10-31T01:02:19;100429.63;;;14.00;93.74
70314;BME280;57725;47.526;18.986;2022-10-31T01:04:46;100430.50;;;14.01;93.47
70314;BME280;57725;47.526;18.986;2022-10-31T01:07:12;100434.03;;;14.00;93.31
70314;BME280;57725;47.526;18.986;2022-10-31T01:09:39;100430.56;;;13.99;93.48
70314;BME280;57725;47.526;18.986;2022-10-31T01:12:04;100422.66;;;13.99;93.61
70314;BME280;57725;47.526;18.986;2022-10-31T01:14:32;100423.53;;;14.00;93.83
70314;BME280;57725;47.526;18.986;2022-10-31T01:16:57;100417.41;;;13.99;93.39
70314;BME280;57725;47.526;18.986;2022-10-31T01:19:22;100416.56;;;13.99;93.55
70314;BME280;57725;47.526;18.986;2022-10-31T01:21:48;100414.78;;;13.99;93.54
70314;BME280;57725;47.526;18.986;2022-10-31T01:24:15;100416.56;;;13.99;93.53
70314;BME280;57725;47.526;18.986;2022-10-31T01:26:43;100420.97;;;13.98;93.53
70314;BME280;57725;47.526;18.986;2022-10-31T01:29:09;100411.31;;;13.99;93.39
70314;BME280;57725;47.526;18.986;2022-10-31T01:31:37;100411.31;;;13.99;93.36
70314;BME280;57725;47.526;18.986;2022-10-31T01:34:17;100411.31;;;13.99;93.44
70314;BME280;57725;47.526;18.986;2022-10-31T01:36:44;100407.81;;;13.98;93.58
70314;BME280;57725;47.526;18.986;2022-10-31T01:39:14;100406.97;;;13.98;93.58
70314;BME280;57725;47.526;18.986;2022-10-31T01:41:48;100410.44;;;13.98;93.51
70314;BME280;57725;47.526;18.986;2022-10-31T01:49:12;100402.63;;;13.97;93.47
70314;BME280;57725;47.526;18.986;2022-10-31T01:51:50;100406.97;;;13.98;93.40
70314;BME280;57725;47.526;18.986;2022-10-31T01:54:25;100397.38;;;13.97;93.44
70314;BME280;57725;47.526;18.986;2022-10-31T01:56:53;100400.00;;;13.97;93.39
70314;BME280;57725;47.526;18.986;2022-10-31T01:59:21;100404.41;;;13.96;93.53
70314;BME280;57725;47.526;18.986;2022-10-31T02:01:49;100406.22;;;13.96;93.53
70314;BME280;57725;47.526;18.986;2022-10-31T02:04:18;100407.03;;;13.96;93.50
70314;BME280;57725;47.526;18.986;2022-10-31T02:06:53;100401.78;;;13.96;93.43
70314;BME280;57725;47.526;18.986;2022-10-31T02:09:20;100400.00;;;13.97;93.52
70314;BME280;57725;47.526;18.986;2022-10-31T02:11:58;100404.41;;;13.96;93.73
70314;BME280;57725;47.526;18.986;2022-10-31T02:14:25;100402.72;;;13.95;93.25
70314;BME280;57725;47.526;18.986;2022-10-31T02:16:54;100402.81;;;13.94;93.41
70314;BME280;57725;47.526;18.986;2022-10-31T02:19:44;100398.34;;;13.96;93.51
70314;BME280;57725;47.526;18.986;2022-10-31T02:33:16;100389.66;;;13.94;93.55
70314;BME280;57725;47.526;18.986;2022-10-31T02:41:37;100401.03;;;13.94;93.52
70314;BME280;57725;47.526;18.986;2022-10-31T02:44:19;100404.59;;;13.93;93.53
70314;BME280;57725;47.526;18.986;2022-10-31T02:46:53;100408.91;;;13.94;93.57
70314;BME280;57725;47.526;18.986;2022-10-31T02:52:21;100408.06;;;13.94;93.63
70314;BME280;57725;47.526;18.986;2022-10-31T02:54:48;100410.75;;;13.92;93.63
70314;BME280;57725;47.526;18.986;2022-10-31T02:57:20;100417.72;;;13.93;93.54
70314;BME280;57725;47.526;18.986;2022-10-31T02:59:52;100412.47;;;13.93;93.56
70314;BME280;57725;47.526;18.986;2022-10-31T03:10:59;100415.16;;;13.92;93.49
70314;BME280;57725;47.526;18.986;2022-10-31T03:13:46;100419.56;;;13.91;93.50
70314;BME280;57725;47.526;18.986;2022-10-31T03:18:53;100423.13;;;13.90;93.70
70314;BME280;57725;47.526;18.986;2022-10-31T03:23:46;100424.81;;;13.91;93.61
70314;BME280;57725;47.526;18.986;2022-10-31T03:26:13;100426.59;;;13.91;93.42
70314;BME280;57725;47.526;18.986;2022-10-31T03:28:54;100426.66;;;13.89;93.72
70314;BME280;57725;47.526;18.986;2022-10-31T03:31:28;100436.19;;;13.92;93.60
70314;BME280;57725;47.526;18.986;2022-10-31T03:33:58;100433.56;;;13.92;93.63
70314;BME280;57725;47.526;18.986;2022-10-31T03:36:25;100431.84;;;13.91;93.52
70314;BME280;57725;47.526;18.986;2022-10-31T03:38:53;100434.47;;;13.91;93.63
70314;BME280;57725;47.526;18.986;2022-10-31T03:41:22;100431.00;;;13.90;93.50
70314;BME280;57725;47.526;18.986;2022-10-31T03:44:06;100431.00;;;13.90;93.58
70314;BME280;57725;47.526;18.986;2022-10-31T03:46:35;100434.56;;;13.89;93.44
70314;BME280;57725;47.526;18.986;2022-10-31T03:49:01;100432.84;;;13.88;93.46
70314;BME280;57725;47.526;18.986;2022-10-31T03:51:38;100435.41;;;13.90;93.65
70314;BME280;57725;47.526;18.986;2022-10-31T03:54:22;100440.66;;;13.90;93.71
70314;BME280;57725;47.526;18.986;2022-10-31T03:56:55;100438.03;;;13.90;93.68
70314;BME280;57725;47.526;18.986;2022-10-31T03:59:29;100438.03;;;13.90;93.61
70314;BME280;57725;47.526;18.986;2022-10-31T04:02:05;100444.22;;;13.89;93.62
70314;BME280;57725;47.526;18.986;2022-10-31T04:04:37;100439.03;;;13.87;93.63
70314;BME280;57725;47.526;18.986;2022-10-31T04:07:04;100438.09;;;13.88;93.60
70314;BME280;57725;47.526;18.986;2022-10-31T04:09:39;100438.09;;;13.88;93.65
70314;BME280;57725;47.526;18.986;2022-10-31T04:12:08;100438.09;;;13.88;93.54
70314;BME280;57725;47.526;18.986;2022-10-31T04:14:38;100438.97;;;13.89;93.66
70314;BME280;57725;47.526;18.986;2022-10-31T04:17:10;100436.31;;;13.89;93.39
70314;BME280;57725;47.526;18.986;2022-10-31T04:19:37;100428.50;;;13.87;93.79
70314;BME280;57725;47.526;18.986;2022-10-31T04:22:02;100439.03;;;13.87;93.54
70314;BME280;57725;47.526;18.986;2022-10-31T04:24:28;100448.63;;;13.88;93.95
70314;BME280;57725;47.526;18.986;2022-10-31T04:26:53;100453.03;;;13.88;93.62
70314;BME280;57725;47.526;18.986;2022-10-31T04:29:18;100446.00;;;13.88;93.49
70314;BME280;57725;47.526;18.986;2022-10-31T04:31:44;100447.84;;;13.86;93.76
70314;BME280;57725;47.526;18.986;2022-10-31T04:34:14;100454.78;;;13.87;93.58
70314;BME280;57725;47.526;18.986;2022-10-31T04:36:41;100451.31;;;13.87;93.52
70314;BME280;57725;47.526;18.986;2022-10-31T04:39:07;100446.91;;;13.87;93.55
70314;BME280;57725;47.526;18.986;2022-10-31T04:41:35;100452.22;;;13.86;93.42
70314;BME280;57725;47.526;18.986;2022-10-31T04:44:03;100453.94;;;13.87;93.54
70314;BME280;57725;47.526;18.986;2022-10-31T04:46:33;100457.50;;;13.86;93.56
70314;BME280;57725;47.526;18.986;2022-10-31T04:49:00;100460.97;;;13.86;93.54
70314;BME280;57725;47.526;18.986;2022-10-31T04:51:26;100458.34;;;13.86;93.77
70314;BME280;57725;47.526;18.986;2022-10-31T04:53:51;100456.63;;;13.85;93.71
70314;BME280;57725;47.526;18.986;2022-10-31T04:56:16;100453.16;;;13.85;93.61
70314;BME280;57725;47.526;18.986;2022-10-31T04:58:44;100449.59;;;13.86;93.49
70314;BME280;57725;47.526;18.986;2022-10-31T05:01:10;100461.03;;;13.85;93.63
70314;BME280;57725;47.526;18.986;2022-10-31T05:03:35;100463.66;;;13.85;93.86
70314;BME280;57725;47.526;18.986;2022-10-31T05:06:01;100455.78;;;13.85;93.64
70314;BME280;57725;47.526;18.986;2022-10-31T05:08:26;100456.63;;;13.85;93.63
70314;BME280;57725;47.526;18.986;2022-10-31T05:10:51;100459.25;;;13.85;93.68
70314;BME280;57725;47.526;18.986;2022-10-31T05:13:17;100452.34;;;13.84;93.73
70314;BME280;57725;47.526;18.986;2022-10-31T05:15:42;100453.16;;;13.85;93.67
70314;BME280;57725;47.526;18.986;2022-10-31T05:18:08;100461.03;;;13.85;93.52
70314;BME280;57725;47.526;18.986;2022-10-31T05:20:33;100465.47;;;13.84;93.73
70314;BME280;57725;47.526;18.986;2022-10-31T05:22:59;100454.97;;;13.84;93.54
70314;BME280;57725;47.526;18.986;2022-10-31T05:25:27;100464.63;;;13.84;93.44
70314;BME280;57725;47.526;18.986;2022-10-31T05:27:56;100469.88;;;13.84;93.53
70314;BME280;57725;47.526;18.986;2022-10-31T05:30:29;100472.50;;;13.84;93.64
70314;BME280;57725;47.526;18.986;2022-10-31T05:32:55;100475.13;;;13.84;93.64
70314;BME280;57725;47.526;18.986;2022-10-31T05:35:25;100475.13;;;13.84;93.38
70314;BME280;57725;47.526;18.986;2022-10-31T05:37:54;100475.13;;;13.84;93.55
70314;BME280;57725;47.526;18.986;2022-10-31T05:40:23;100480.44;;;13.82;93.59
70314;BME280;57725;47.526;18.986;2022-10-31T05:42:51;100478.75;;;13.81;93.82
70314;BME280;57725;47.526;18.986;2022-10-31T05:45:18;100479.53;;;13.83;93.41
70314;BME280;57725;47.526;18.986;2022-10-31T05:47:54;100465.53;;;13.83;93.65
70314;BME280;57725;47.526;18.986;2022-10-31T05:50:23;100467.31;;;13.82;93.59
70314;BME280;57725;47.526;18.986;2022-10-31T05:53:01;100459.44;;;13.82;93.48
70314;BME280;57725;47.526;18.986;2022-10-31T05:55:35;100471.72;;;13.82;93.61
70314;BME280;57725;47.526;18.986;2022-10-31T05:58:05;100477.81;;;13.82;93.75
70314;BME280;57725;47.526;18.986;2022-10-31T06:00:30;100469.09;;;13.82;93.50
70314;BME280;57725;47.526;18.986;2022-10-31T06:03:02;100476.97;;;13.82;93.67
70314;BME280;57725;47.526;18.986;2022-10-31T06:05:29;100479.59;;;13.82;93.64
70314;BME280;57725;47.526;18.986;2022-10-31T06:07:55;100476.97;;;13.82;93.73
70314;BME280;57725;47.526;18.986;2022-10-31T06:10:21;100477.81;;;13.82;93.71
70314;BME280;57725;47.526;18.986;2022-10-31T06:12:47;100463.84;;;13.82;93.55
70314;BME280;57725;47.526;18.986;2022-10-31T06:15:13;100465.59;;;13.81;93.65
70314;BME280;57725;47.526;18.986;2022-10-31T06:17:38;100481.38;;;13.81;93.50
70314;BME280;57725;47.526;18.986;2022-10-31T06:20:04;100470.00;;;13.81;93.65
70314;BME280;57725;47.526;18.986;2022-10-31T06:22:32;100464.75;;;13.81;93.43
70314;BME280;57725;47.526;18.986;2022-10-31T06:25:00;100472.63;;;13.81;93.65
70314;BME280;57725;47.526;18.986;2022-10-31T06:27:25;100477.03;;;13.80;93.67
70314;BME280;57725;47.526;18.986;2022-10-31T06:29:53;100486.69;;;13.80;93.71
70314;BME280;57725;47.526;18.986;2022-10-31T06:32:18;100484.06;;;13.80;93.33
70314;BME280;57725;47.526;18.986;2022-10-31T06:34:44;100483.22;;;13.79;93.55
70314;BME280;57725;47.526;18.986;2022-10-31T06:37:13;100498.06;;;13.80;93.62
70314;BME280;57725;47.526;18.986;2022-10-31T06:39:38;100497.22;;;13.80;93.70
70314;BME280;57725;47.526;18.986;2022-10-31T06:42:04;100504.25;;;13.79;93.54
70314;BME280;57725;47.526;18.986;2022-10-31T06:44:30;100502.47;;;13.80;93.57
70314;BME280;57725;47.526;18.986;2022-10-31T06:46:57;100510.34;;;13.80;93.62
70314;BME280;57725;47.526;18.986;2022-10-31T06:49:23;100505.09;;;13.80;93.77
70314;BME280;57725;47.526;18.986;2022-10-31T06:51:53;100513.03;;;13.78;93.60
70314;BME280;57725;47.526;18.986;2022-10-31T06:54:19;100502.53;;;13.78;93.45
70314;BME280;57725;47.526;18.986;2022-10-31T06:56:50;100509.50;;;13.79;93.52
70314;BME280;57725;47.526;18.986;2022-10-31T06:59:17;100510.41;;;13.78;93.60
70314;BME280;57725;47.526;18.986;2022-10-31T07:01:43;100515.69;;;13.78;93.63
70314;BME280;57725;47.526;18.986;2022-10-31T07:04:13;100504.31;;;13.77;93.75
70314;BME280;57725;47.526;18.986;2022-10-31T07:06:41;100506.06;;;13.77;93.74
70314;BME280;57725;47.526;18.986;2022-10-31T07:09:09;100513.97;;;13.77;93.60
70314;BME280;57725;47.526;18.986;2022-10-31T07:11:37;100511.34;;;13.77;93.51
70314;BME280;57725;47.526;18.986;2022-10-31T07:14:02;100512.19;;;13.77;93.60
70314;BME280;57725;47.526;18.986;2022-10-31T07:16:30;100499.97;;;13.76;93.67
70314;BME280;57725;47.526;18.986;2022-10-31T07:18:55;100508.72;;;13.77;93.60
70314;BME280;57725;47.526;18.986;2022-10-31T07:21:23;100503.44;;;13.77;93.79
70314;BME280;57725;47.526;18.986;2022-10-31T07:23:51;100508.72;;;13.77;93.53
70314;BME280;57725;47.526;18.986;2022-10-31T07:26:17;100508.72;;;13.77;93.55
70314;BME280;57725;47.526;18.986;2022-10-31T07:28:42;100508.72;;;13.77;93.55
70314;BME280;57725;47.526;18.986;2022-10-31T07:31:07;100517.50;;;13.76;93.50
70314;BME280;57725;47.526;18.986;2022-10-31T07:33:35;100517.50;;;13.76;93.63
70314;BME280;57725;47.526;18.986;2022-10-31T07:36:00;100522.84;;;13.74;93.44
70314;BME280;57725;47.526;18.986;2022-10-31T07:38:26;100527.09;;;13.77;93.66
70314;BME280;57725;47.526;18.986;2022-10-31T07:40:52;100525.41;;;13.76;93.73
70314;BME280;57725;47.526;18.986;2022-10-31T07:43:18;100531.50;;;13.76;93.75
70314;BME280;57725;47.526;18.986;2022-10-31T07:45:46;100530.66;;;13.76;93.73
70314;BME280;57725;47.526;18.986;2022-10-31T07:48:15;100530.66;;;13.76;93.53
70314;BME280;57725;47.526;18.986;2022-10-31T07:50:43;100526.31;;;13.75;93.60
70314;BME280;57725;47.526;18.986;2022-10-31T07:53:10;100526.31;;;13.75;93.53
70314;BME280;57725;47.526;18.986;2022-10-31T07:55:39;100529.88;;;13.74;93.73
70314;BME280;57725;47.526;18.986;2022-10-31T07:58:10;100530.66;;;13.76;93.65
70314;BME280;57725;47.526;18.986;2022-10-31T08:00:37;100522.84;;;13.74;93.70
70314;BME280;57725;47.526;18.986;2022-10-31T08:03:05;100528.94;;;13.75;93.54
70314;BME280;57725;47.526;18.986;2022-10-31T08:05:31;100528.09;;;13.74;93.61
70314;BME280;57725;47.526;18.986;2022-10-31T08:07:57;100524.53;;;13.75;93.77
70314;BME280;57725;47.526;18.986;2022-10-31T08:10:23;100528.94;;;13.75;93.57
70314;BME280;57725;47.526;18.986;2022-10-31T08:13:20;100528.94;;;13.75;93.82
70314;BME280;57725;47.526;18.986;2022-10-31T08:15:45;100529.88;;;13.74;93.61
70314;BME280;57725;47.526;18.986;2022-10-31T08:18:15;100533.34;;;13.74;93.47
70314;BME280;57725;47.526;18.986;2022-10-31T08:20:41;100532.50;;;13.74;93.81
70314;BME280;57725;47.526;18.986;2022-10-31T08:23:08;100540.31;;;13.75;93.68
70314;BME280;57725;47.526;18.986;2022-10-31T08:25:35;100536.88;;;13.73;93.78
70314;BME280;57725;47.526;18.986;2022-10-31T08:28:06;100537.00;;;13.72;93.64
70314;BME280;57725;47.526;18.986;2022-10-31T08:30:33;100534.25;;;13.73;93.61
70314;BME280;57725;47.526;18.986;2022-10-31T08:33:13;100535.13;;;13.74;93.63
70314;BME280;57725;47.526;18.986;2022-10-31T08:35:48;100530.78;;;13.73;93.57
70314;BME280;57725;47.526;18.986;2022-10-31T08:38:19;100529.09;;;13.72;93.58
70314;BME280;57725;47.526;18.986;2022-10-31T08:40:48;100532.50;;;13.74;93.59
70314;BME280;57725;47.526;18.986;2022-10-31T08:43:17;100526.38;;;13.73;93.69
70314;BME280;57725;47.526;18.986;2022-10-31T08:45:48;100529.97;;;13.72;93.56
70314;BME280;57725;47.526;18.986;2022-10-31T08:48:19;100532.59;;;13.72;93.56
70314;BME280;57725;47.526;18.986;2022-10-31T08:50:47;100535.13;;;13.74;93.73
70314;BME280;57725;47.526;18.986;2022-10-31T08:53:19;100536.88;;;13.73;93.76
70314;BME280;57725;47.526;18.986;2022-10-31T08:55:47;100535.22;;;13.72;93.71
70314;BME280;57725;47.526;18.986;2022-10-31T08:58:16;100536.03;;;13.73;93.71
70314;BME280;57725;47.526;18.986;2022-10-31T09:00:42;100536.88;;;13.73;93.54
70314;BME280;57725;47.526;18.986;2022-10-31T09:03:13;100538.66;;;13.73;93.73
70314;BME280;57725;47.526;18.986;2022-10-31T09:05:41;100548.34;;;13.72;93.80
70314;BME280;57725;47.526;18.986;2022-10-31T09:08:07;100549.19;;;13.73;93.75
70314;BME280;57725;47.526;18.986;2022-10-31T09:10:34;100545.72;;;13.72;93.80
70314;BME280;57725;47.526;18.986;2022-10-31T09:13:03;100544.78;;;13.73;93.85
70314;BME280;57725;47.526;18.986;2022-10-31T09:15:38;100544.88;;;13.72;93.91
70314;BME280;57725;47.526;18.986;2022-10-31T09:18:05;100542.31;;;13.70;93.39
70314;BME280;57725;47.526;18.986;2022-10-31T09:20:31;100546.66;;;13.71;93.54
70314;BME280;57725;47.526;18.986;2022-10-31T09:23:01;100544.94;;;13.70;93.55
70314;BME280;57725;47.526;18.986;2022-10-31T09:25:27;100548.34;;;13.72;93.64
70314;BME280;57725;47.526;18.986;2022-10-31T09:28:12;100547.50;;;13.72;93.65
70314;BME280;57725;47.526;18.986;2022-10-31T09:30:38;100552.66;;;13.73;93.59
70314;BME280;57725;47.526;18.986;2022-10-31T09:33:06;100555.38;;;13.72;93.66
70314;BME280;57725;47.526;18.986;2022-10-31T09:35:32;100550.13;;;13.72;93.64
70314;BME280;57725;47.526;18.986;2022-10-31T09:38:08;100554.44;;;13.73;93.58
70314;BME280;57725;47.526;18.986;2022-10-31T09:43:15;100547.50;;;13.72;93.65
70314;BME280;57725;47.526;18.986;2022-10-31T09:56:27;100544.00;;;13.71;93.99
70314;BME280;57725;47.526;18.986;2022-10-31T09:58:58;100552.75;;;13.72;93.70
70314;BME280;57725;47.526;18.986;2022-10-31T10:02:26;100545.72;;;13.72;93.57
70314;BME280;57725;47.526;18.986;2022-10-31T10:04:48;100544.88;;;13.72;93.85
70314;BME280;57725;47.526;18.986;2022-10-31T10:09:52;100550.03;;;13.73;93.74
70314;BME280;57725;47.526;18.986;2022-10-31T10:21:05;100539.63;;;13.72;93.58
70314;BME280;57725;47.526;18.986;2022-10-31T10:23:40;100542.25;;;13.72;93.76
70314;BME280;57725;47.526;18.986;2022-10-31T10:26:19;100540.47;;;13.72;93.70
70314;BME280;57725;47.526;18.986;2022-10-31T10:29:01;100534.34;;;13.72;93.74
70314;BME280;57725;47.526;18.986;2022-10-31T10:31:34;100536.13;;;13.71;93.66
70314;BME280;57725;47.526;18.986;2022-10-31T10:36:52;100529.97;;;13.72;93.69
70314;BME280;57725;47.526;18.986;2022-10-31T10:39:24;100529.09;;;13.72;93.70
70314;BME280;57725;47.526;18.986;2022-10-31T10:41:50;100524.78;;;13.71;93.84
70314;BME280;57725;47.526;18.986;2022-10-31T10:44:40;100523.84;;;13.72;93.76
70314;BME280;57725;47.526;18.986;2022-10-31T10:47:41;100529.09;;;13.72;93.81
70314;BME280;57725;47.526;18.986;2022-10-31T10:50:17;100529.88;;;13.74;93.92
70314;BME280;57725;47.526;18.986;2022-10-31T11:00:26;100529.00;;;13.73;93.73
70314;BME280;57725;47.526;18.986;2022-10-31T11:02:55;100529.00;;;13.73;93.72
70314;BME280;57725;47.526;18.986;2022-10-31T11:08:04;100527.22;;;13.74;93.98
70314;BME280;57725;47.526;18.986;2022-10-31T11:10:33;100526.38;;;13.73;93.86
70314;BME280;57725;47.526;18.986;2022-10-31T11:16:33;100521.97;;;13.74;94.03
70314;BME280;57725;47.526;18.986;2022-10-31T11:19:12;100518.50;;;13.73;93.76
70314;BME280;57725;47.526;18.986;2022-10-31T11:21:40;100518.50;;;13.73;93.76
70314;BME280;57725;47.526;18.986;2022-10-31T11:26:38;100519.34;;;13.74;93.83
70314;BME280;57725;47.526;18.986;2022-10-31T11:29:16;100508.84;;;13.74;93.71
70314;BME280;57725;47.526;18.986;2022-10-31T11:31:44;100511.47;;;13.74;93.79
70314;BME280;57725;47.526;18.986;2022-10-31T11:34:18;100509.69;;;13.74;93.69
70314;BME280;57725;47.526;18.986;2022-10-31T11:36:48;100503.59;;;13.74;93.64
70314;BME280;57725;47.526;18.986;2022-10-31T11:39:24;100505.34;;;13.73;93.59
70314;BME280;57725;47.526;18.986;2022-10-31T11:42:00;100498.34;;;13.74;93.76
70314;BME280;57725;47.526;18.986;2022-10-31T11:44:32;100495.63;;;13.75;93.90
70314;BME280;57725;47.526;18.986;2022-10-31T11:47:04;100492.16;;;13.75;93.79
70314;BME280;57725;47.526;18.986;2022-10-31T11:52:04;100497.41;;;13.75;93.62
70314;BME280;57725;47.526;18.986;2022-10-31T11:57:23;100500.03;;;13.75;93.90
70314;BME280;57725;47.526;18.986;2022-10-31T11:59:54;100506.16;;;13.75;93.80
70314;BME280;57725;47.526;18.986;2022-10-31T12:02:20;100501.81;;;13.74;93.63
70314;BME280;57725;47.526;18.986;2022-10-31T12:04:52;100500.03;;;13.75;93.75
70314;BME280;57725;47.526;18.986;2022-10-31T12:07:19;100498.25;;;13.75;93.95
70314;BME280;57725;47.526;18.986;2022-10-31T12:09:44;100508.78;;;13.75;93.84
70314;BME280;57725;47.526;18.986;2022-10-31T12:17:47;100503.53;;;13.75;93.80
70314;BME280;57725;47.526;18.986;2022-10-31T12:25:36;100503.53;;;13.75;93.71
70314;BME280;57725;47.526;18.986;2022-10-31T12:57:41;100485.97;;;13.76;93.84
70314;BME280;57725;47.526;18.986;2022-10-31T13:00:17;100491.22;;;13.76;93.78
70314;BME280;57725;47.526;18.986;2022-10-31T13:02:56;100489.47;;;13.76;93.83
70314;BME280;57725;47.526;18.986;2022-10-31T13:05:32;100485.97;;;13.76;93.65
70314;BME280;57725;47.526;18.986;2022-10-31T13:08:14;100481.66;;;13.75;93.76
70314;BME280;57725;47.526;18.986;2022-10-31T13:10:47;100483.34;;;13.76;93.82
70314;BME280;57725;47.526;18.986;2022-10-31T13:13:27;100485.13;;;13.75;93.68
70314;BME280;57725;47.526;18.986;2022-10-31T13:16:03;100483.34;;;13.76;93.69
70314;BME280;57725;47.526;18.986;2022-10-31T13:18:42;100480.66;;;13.77;93.76
70314;BME280;57725;47.526;18.986;2022-10-31T13:21:18;100484.13;;;13.78;93.60
70314;BME280;57725;47.526;18.986;2022-10-31T13:23:46;100484.19;;;13.76;93.76
70314;BME280;57725;47.526;18.986;2022-10-31T13:31:40;100483.28;;;13.77;93.87
70314;BME280;57725;47.526;18.986;2022-10-31T13:34:21;100489.41;;;13.78;93.67
70314;BME280;57725;47.526;18.986;2022-10-31T13:36:53;100481.50;;;13.78;93.86
70314;BME280;57725;47.526;18.986;2022-10-31T13:42:53;100479.81;;;13.77;93.84
70314;BME280;57725;47.526;18.986;2022-10-31T13:45:22;100483.28;;;13.77;93.80
70314;BME280;57725;47.526;18.986;2022-10-31T13:50:32;100478.88;;;13.78;93.91
70314;BME280;57725;47.526;18.986;2022-10-31T13:53:22;100480.66;;;13.77;93.93
70314;BME280;57725;47.526;18.986;2022-10-31T13:56:01;100478.03;;;13.77;93.80
70314;BME280;57725;47.526;18.986;2022-10-31T13:58:32;100478.94;;;13.76;94.00
70314;BME280;57725;47.526;18.986;2022-10-31T14:03:41;100480.66;;;13.77;93.83
70314;BME280;57725;47.526;18.986;2022-10-31T14:06:11;100480.66;;;13.77;93.82
70314;BME280;57725;47.526;18.986;2022-10-31T14:08:41;100478.03;;;13.77;93.84
70314;BME280;57725;47.526;18.986;2022-10-31T14:11:26;100473.63;;;13.78;93.74
70314;BME280;57725;47.526;18.986;2022-10-31T14:13:56;100469.22;;;13.78;93.65
70314;BME280;57725;47.526;18.986;2022-10-31T14:16:26;100476.25;;;13.78;93.61
70314;BME280;57725;47.526;18.986;2022-10-31T14:19:02;100468.38;;;13.78;93.72
70314;BME280;57725;47.526;18.986;2022-10-31T14:21:38;100474.47;;;13.78;93.71
70314;BME280;57725;47.526;18.986;2022-10-31T14:29:47;100470.16;;;13.77;93.71
70314;BME280;57725;47.526;18.986;2022-10-31T14:34:51;100469.22;;;13.78;93.63
70314;BME280;57725;47.526;18.986;2022-10-31T14:40:19;100484.06;;;13.80;93.72
70314;BME280;57725;47.526;18.986;2022-10-31T14:45:46;100475.34;;;13.79;93.57
70314;BME280;57725;47.526;18.986;2022-10-31T14:51:38;100478.81;;;13.80;93.80
70314;BME280;57725;47.526;18.986;2022-10-31T14:54:05;100476.25;;;13.78;93.82
70314;BME280;57725;47.526;18.986;2022-10-31T14:56:35;100477.97;;;13.79;93.74
70314;BME280;57725;47.526;18.986;2022-10-31T14:59:08;100477.97;;;13.79;93.64
70314;BME280;57725;47.526;18.986;2022-10-31T15:01:38;100475.34;;;13.79;93.64
70314;BME280;57725;47.526;18.986;2022-10-31T15:04:24;100470.94;;;13.80;93.63
70314;BME280;57725;47.526;18.986;2022-10-31T15:07:19;100468.31;;;13.80;93.63
70314;BME280;57725;47.526;18.986;2022-10-31T15:10:01;100470.94;;;13.80;93.64
70314;BME280;57725;47.526;18.986;2022-10-31T15:12:29;100465.69;;;13.80;93.75
70314;BME280;57725;47.526;18.986;2022-10-31T15:14:55;100466.59;;;13.78;93.81
70314;BME280;57725;47.526;18.986;2022-10-31T15:17:25;100474.41;;;13.80;93.84
70314;BME280;57725;47.526;18.986;2022-10-31T15:19:51;100469.22;;;13.78;93.83
70314;BME280;57725;47.526;18.986;2022-10-31T15:22:19;100463.03;;;13.80;93.90
70314;BME280;57725;47.526;18.986;2022-10-31T15:24:48;100466.53;;;13.80;94.02
70314;BME280;57725;47.526;18.986;2022-10-31T15:27:21;100471.78;;;13.80;94.06
70314;BME280;57725;47.526;18.986;2022-10-31T15:29:50;100469.22;;;13.78;93.63
70314;BME280;57725;47.526;18.986;2022-10-31T15:32:27;100468.31;;;13.80;93.68
70314;BME280;57725;47.526;18.986;2022-10-31T15:34:54;100468.31;;;13.80;93.74